sensor_id;sensor_type;location;lat;lon;timestamp;P1;durP1;ratioP1;P2;durP2;ratioP2
8397;SDS011;4236;54.504;9.588;2023-12-20T00:01:27;20.87;;;18.97;;
8397;SDS011;4236;54.504;9.588;2023-12-20T00:03:56;20.13;;;17.17;;
8397;SDS011;4236;54.504;9.588;2023-12-20T00:06:24;19.00;;;16.83;;
8397;SDS011;4236;54.504;9.588;2023-12-20T00:08:52;21.20;;;17.00;;
8397;SDS011;4236;54.504;9.588;2023-12-20T00:11:19;19.10;;;17.17;;
8397;SDS011;4236;54.504;9.588;2023-12-20T00:13:47;18.83;;;17.00;;
8397;SDS011;4236;54.504;9.588;2023-12-20T00:16:17;18.23;;;16.43;;
8397;SDS011;4236;54.504;9.588;2023-12-20T00:18:45;17.67;;;16.27;;
8397;SDS011;4236;54.504;9.588;2023-12-20T00:21:14;25.43;;;18.03;;
8397;SDS011;4236;54.504;9.588;2023-12-20T00:23:41;26.13;;;18.70;;
8397;SDS011;4236;54.504;9.588;2023-12-20T00:26:09;19.00;;;17.00;;
8397;SDS011;4236;54.504;9.588;2023-12-20T00:28:36;17.97;;;16.73;;
8397;SDS011;4236;54.504;9.588;2023-12-20T00:31:04;19.90;;;17.40;;
8397;SDS011;4236;54.504;9.588;2023-12-20T00:33:32;42.10;;;18.30;;
8397;SDS011;4236;54.504;9.588;2023-12-20T00:36:00;19.73;;;17.70;;
8397;SDS011;4236;54.504;9.588;2023-12-20T00:38:29;19.00;;;17.37;;
8397;SDS011;4236;54.504;9.588;2023-12-20T00:40:56;20.50;;;17.43;;
8397;SDS011;4236;54.504;9.588;2023-12-20T00:43:24;20.30;;;18.30;;
8397;SDS011;4236;54.504;9.588;2023-12-20T00:45:51;19.10;;;17.13;;
8397;SDS011;4236;54.504;9.588;2023-12-20T00:48:19;19.50;;;17.50;;
8397;SDS011;4236;54.504;9.588;2023-12-20T00:50:46;18.20;;;16.70;;
8397;SDS011;4236;54.504;9.588;2023-12-20T00:53:14;19.77;;;17.90;;
8397;SDS011;4236;54.504;9.588;2023-12-20T00:55:43;19.27;;;17.60;;
8397;SDS011;4236;54.504;9.588;2023-12-20T00:58:11;18.87;;;17.13;;
8397;SDS011;4236;54.504;9.588;2023-12-20T01:00:39;20.87;;;19.00;;
8397;SDS011;4236;54.504;9.588;2023-12-20T01:03:10;26.30;;;18.43;;
8397;SDS011;4236;54.504;9.588;2023-12-20T01:05:37;19.27;;;17.47;;
8397;SDS011;4236;54.504;9.588;2023-12-20T01:08:05;23.47;;;18.47;;
8397;SDS011;4236;54.504;9.588;2023-12-20T01:10:33;17.77;;;16.30;;
8397;SDS011;4236;54.504;9.588;2023-12-20T01:13:01;18.20;;;16.93;;
8397;SDS011;4236;54.504;9.588;2023-12-20T01:15:29;16.17;;;15.07;;
8397;SDS011;4236;54.504;9.588;2023-12-20T01:17:57;18.00;;;16.27;;
8397;SDS011;4236;54.504;9.588;2023-12-20T01:20:25;17.13;;;15.80;;
8397;SDS011;4236;54.504;9.588;2023-12-20T01:22:53;17.03;;;15.83;;
8397;SDS011;4236;54.504;9.588;2023-12-20T01:25:21;17.13;;;15.60;;
8397;SDS011;4236;54.504;9.588;2023-12-20T01:27:48;16.00;;;15.10;;
8397;SDS011;4236;54.504;9.588;2023-12-20T01:30:17;15.90;;;15.00;;
8397;SDS011;4236;54.504;9.588;2023-12-20T01:32:45;16.90;;;15.43;;
8397;SDS011;4236;54.504;9.588;2023-12-20T01:35:13;16.10;;;14.90;;
8397;SDS011;4236;54.504;9.588;2023-12-20T01:37:41;16.17;;;15.27;;
8397;SDS011;4236;54.504;9.588;2023-12-20T01:40:09;16.53;;;15.23;;
8397;SDS011;4236;54.504;9.588;2023-12-20T01:42:37;16.03;;;15.07;;
8397;SDS011;4236;54.504;9.588;2023-12-20T01:45:05;15.70;;;15.00;;
8397;SDS011;4236;54.504;9.588;2023-12-20T01:47:34;16.20;;;15.10;;
8397;SDS011;4236;54.504;9.588;2023-12-20T01:50:02;17.70;;;16.30;;
8397;SDS011;4236;54.504;9.588;2023-12-20T01:52:31;16.10;;;15.33;;
8397;SDS011;4236;54.504;9.588;2023-12-20T01:55:00;17.17;;;15.73;;
8397;SDS011;4236;54.504;9.588;2023-12-20T01:57:29;19.50;;;16.43;;
8397;SDS011;4236;54.504;9.588;2023-12-20T01:59:57;17.53;;;15.90;;
8397;SDS011;4236;54.504;9.588;2023-12-20T02:02:25;17.90;;;16.63;;
8397;SDS011;4236;54.504;9.588;2023-12-20T02:04:55;17.97;;;16.63;;
8397;SDS011;4236;54.504;9.588;2023-12-20T02:07:23;18.43;;;16.80;;
8397;SDS011;4236;54.504;9.588;2023-12-20T02:09:51;17.97;;;16.60;;
8397;SDS011;4236;54.504;9.588;2023-12-20T02:12:19;17.97;;;16.63;;
8397;SDS011;4236;54.504;9.588;2023-12-20T02:14:47;20.47;;;18.80;;
8397;SDS011;4236;54.504;9.588;2023-12-20T02:17:14;17.37;;;16.30;;
8397;SDS011;4236;54.504;9.588;2023-12-20T02:19:43;21.30;;;18.90;;
8397;SDS011;4236;54.504;9.588;2023-12-20T02:22:12;18.83;;;17.03;;
8397;SDS011;4236;54.504;9.588;2023-12-20T02:24:40;18.73;;;17.00;;
8397;SDS011;4236;54.504;9.588;2023-12-20T02:27:08;19.73;;;17.73;;
8397;SDS011;4236;54.504;9.588;2023-12-20T02:29:35;17.90;;;16.33;;
8397;SDS011;4236;54.504;9.588;2023-12-20T02:32:03;18.73;;;16.83;;
8397;SDS011;4236;54.504;9.588;2023-12-20T02:34:31;18.70;;;17.03;;
8397;SDS011;4236;54.504;9.588;2023-12-20T02:36:59;19.27;;;17.77;;
8397;SDS011;4236;54.504;9.588;2023-12-20T02:39:30;20.17;;;17.90;;
8397;SDS011;4236;54.504;9.588;2023-12-20T02:41:57;21.87;;;17.67;;
8397;SDS011;4236;54.504;9.588;2023-12-20T02:44:25;18.40;;;17.10;;
8397;SDS011;4236;54.504;9.588;2023-12-20T02:46:52;27.00;;;20.07;;
8397;SDS011;4236;54.504;9.588;2023-12-20T02:49:20;21.77;;;19.20;;
8397;SDS011;4236;54.504;9.588;2023-12-20T02:51:47;25.93;;;19.10;;
8397;SDS011;4236;54.504;9.588;2023-12-20T02:54:15;23.13;;;19.63;;
8397;SDS011;4236;54.504;9.588;2023-12-20T02:56:44;22.03;;;19.90;;
8397;SDS011;4236;54.504;9.588;2023-12-20T02:59:11;24.63;;;18.20;;
8397;SDS011;4236;54.504;9.588;2023-12-20T03:01:41;20.93;;;18.00;;
8397;SDS011;4236;54.504;9.588;2023-12-20T03:04:09;22.13;;;20.13;;
8397;SDS011;4236;54.504;9.588;2023-12-20T03:06:37;22.27;;;18.37;;
8397;SDS011;4236;54.504;9.588;2023-12-20T03:09:04;23.53;;;17.70;;
8397;SDS011;4236;54.504;9.588;2023-12-20T03:11:32;20.77;;;18.50;;
8397;SDS011;4236;54.504;9.588;2023-12-20T03:14:01;21.17;;;18.60;;
8397;SDS011;4236;54.504;9.588;2023-12-20T03:16:28;22.50;;;17.60;;
8397;SDS011;4236;54.504;9.588;2023-12-20T03:18:58;20.03;;;18.17;;
8397;SDS011;4236;54.504;9.588;2023-12-20T03:21:26;20.33;;;18.37;;
8397;SDS011;4236;54.504;9.588;2023-12-20T03:23:53;20.70;;;18.80;;
8397;SDS011;4236;54.504;9.588;2023-12-20T03:26:21;22.20;;;19.27;;
8397;SDS011;4236;54.504;9.588;2023-12-20T03:28:49;21.83;;;18.37;;
8397;SDS011;4236;54.504;9.588;2023-12-20T03:31:18;26.50;;;19.63;;
8397;SDS011;4236;54.504;9.588;2023-12-20T03:33:47;22.83;;;18.13;;
8397;SDS011;4236;54.504;9.588;2023-12-20T03:36:15;24.10;;;18.03;;
8397;SDS011;4236;54.504;9.588;2023-12-20T03:38:42;23.57;;;17.53;;
8397;SDS011;4236;54.504;9.588;2023-12-20T03:41:10;27.10;;;18.50;;
8397;SDS011;4236;54.504;9.588;2023-12-20T03:43:38;24.60;;;18.40;;
8397;SDS011;4236;54.504;9.588;2023-12-20T03:46:07;24.70;;;17.80;;
8397;SDS011;4236;54.504;9.588;2023-12-20T03:48:36;23.27;;;18.20;;
8397;SDS011;4236;54.504;9.588;2023-12-20T03:51:04;20.03;;;18.07;;
8397;SDS011;4236;54.504;9.588;2023-12-20T03:53:31;23.73;;;18.90;;
8397;SDS011;4236;54.504;9.588;2023-12-20T03:55:59;24.20;;;18.73;;
8397;SDS011;4236;54.504;9.588;2023-12-20T03:58:25;31.23;;;20.10;;
8397;SDS011;4236;54.504;9.588;2023-12-20T04:00:53;28.23;;;20.80;;
8397;SDS011;4236;54.504;9.588;2023-12-20T04:03:21;24.33;;;19.13;;
8397;SDS011;4236;54.504;9.588;2023-12-20T04:05:50;24.13;;;18.43;;
8397;SDS011;4236;54.504;9.588;2023-12-20T04:08:17;20.70;;;18.67;;
8397;SDS011;4236;54.504;9.588;2023-12-20T04:10:45;22.57;;;18.53;;
8397;SDS011;4236;54.504;9.588;2023-12-20T04:13:12;20.93;;;18.03;;
8397;SDS011;4236;54.504;9.588;2023-12-20T04:15:40;20.77;;;18.47;;
8397;SDS011;4236;54.504;9.588;2023-12-20T04:18:08;20.97;;;18.13;;
8397;SDS011;4236;54.504;9.588;2023-12-20T04:20:35;23.40;;;19.03;;
8397;SDS011;4236;54.504;9.588;2023-12-20T04:23:04;22.60;;;18.70;;
8397;SDS011;4236;54.504;9.588;2023-12-20T04:25:32;26.43;;;19.10;;
8397;SDS011;4236;54.504;9.588;2023-12-20T04:27:59;26.37;;;18.90;;
8397;SDS011;4236;54.504;9.588;2023-12-20T04:30:27;30.37;;;19.33;;
8397;SDS011;4236;54.504;9.588;2023-12-20T04:32:54;20.57;;;18.50;;
8397;SDS011;4236;54.504;9.588;2023-12-20T04:35:23;19.60;;;17.70;;
8397;SDS011;4236;54.504;9.588;2023-12-20T04:37:51;28.80;;;19.00;;
8397;SDS011;4236;54.504;9.588;2023-12-20T04:40:20;27.50;;;18.80;;
8397;SDS011;4236;54.504;9.588;2023-12-20T04:42:47;41.07;;;20.27;;
8397;SDS011;4236;54.504;9.588;2023-12-20T04:45:15;23.13;;;18.50;;
8397;SDS011;4236;54.504;9.588;2023-12-20T04:47:43;27.90;;;18.27;;
8397;SDS011;4236;54.504;9.588;2023-12-20T04:50:13;20.63;;;17.87;;
8397;SDS011;4236;54.504;9.588;2023-12-20T04:52:41;33.50;;;19.07;;
8397;SDS011;4236;54.504;9.588;2023-12-20T04:55:09;21.93;;;19.53;;
8397;SDS011;4236;54.504;9.588;2023-12-20T04:57:38;21.27;;;19.50;;
8397;SDS011;4236;54.504;9.588;2023-12-20T05:00:06;29.73;;;19.60;;
8397;SDS011;4236;54.504;9.588;2023-12-20T05:02:34;32.07;;;20.20;;
8397;SDS011;4236;54.504;9.588;2023-12-20T05:05:02;22.93;;;19.37;;
8397;SDS011;4236;54.504;9.588;2023-12-20T05:07:30;21.80;;;18.23;;
8397;SDS011;4236;54.504;9.588;2023-12-20T05:09:58;35.47;;;20.93;;
8397;SDS011;4236;54.504;9.588;2023-12-20T05:12:25;24.33;;;19.00;;
8397;SDS011;4236;54.504;9.588;2023-12-20T05:14:54;29.37;;;19.80;;
8397;SDS011;4236;54.504;9.588;2023-12-20T05:17:22;24.03;;;19.90;;
8397;SDS011;4236;54.504;9.588;2023-12-20T05:19:49;32.50;;;20.63;;
8397;SDS011;4236;54.504;9.588;2023-12-20T05:22:17;26.53;;;20.77;;
8397;SDS011;4236;54.504;9.588;2023-12-20T05:24:45;25.63;;;20.20;;
8397;SDS011;4236;54.504;9.588;2023-12-20T05:27:13;27.23;;;21.80;;
8397;SDS011;4236;54.504;9.588;2023-12-20T05:29:40;26.87;;;20.00;;
8397;SDS011;4236;54.504;9.588;2023-12-20T05:32:09;22.40;;;18.70;;
8397;SDS011;4236;54.504;9.588;2023-12-20T05:34:37;23.30;;;18.47;;
8397;SDS011;4236;54.504;9.588;2023-12-20T05:37:04;20.50;;;18.60;;
8397;SDS011;4236;54.504;9.588;2023-12-20T05:39:33;19.67;;;18.13;;
8397;SDS011;4236;54.504;9.588;2023-12-20T05:42:00;19.80;;;18.00;;
8397;SDS011;4236;54.504;9.588;2023-12-20T05:44:28;19.73;;;18.10;;
8397;SDS011;4236;54.504;9.588;2023-12-20T05:46:55;25.80;;;18.57;;
8397;SDS011;4236;54.504;9.588;2023-12-20T05:49:24;20.07;;;18.17;;
8397;SDS011;4236;54.504;9.588;2023-12-20T05:51:52;24.23;;;19.63;;
8397;SDS011;4236;54.504;9.588;2023-12-20T05:54:20;21.70;;;19.47;;
8397;SDS011;4236;54.504;9.588;2023-12-20T05:56:48;31.77;;;18.80;;
8397;SDS011;4236;54.504;9.588;2023-12-20T05:59:16;25.37;;;21.37;;
8397;SDS011;4236;54.504;9.588;2023-12-20T06:01:44;27.90;;;20.77;;
8397;SDS011;4236;54.504;9.588;2023-12-20T06:04:12;21.90;;;19.90;;
8397;SDS011;4236;54.504;9.588;2023-12-20T06:06:44;21.80;;;18.33;;
8397;SDS011;4236;54.504;9.588;2023-12-20T06:09:12;36.10;;;21.07;;
8397;SDS011;4236;54.504;9.588;2023-12-20T06:11:40;19.83;;;18.23;;
8397;SDS011;4236;54.504;9.588;2023-12-20T06:14:07;21.07;;;19.20;;
8397;SDS011;4236;54.504;9.588;2023-12-20T06:16:35;20.17;;;18.30;;
8397;SDS011;4236;54.504;9.588;2023-12-20T06:19:03;21.33;;;19.40;;
8397;SDS011;4236;54.504;9.588;2023-12-20T06:21:30;21.33;;;19.30;;
8397;SDS011;4236;54.504;9.588;2023-12-20T06:24:00;21.30;;;19.27;;
8397;SDS011;4236;54.504;9.588;2023-12-20T06:26:27;20.47;;;18.53;;
8397;SDS011;4236;54.504;9.588;2023-12-20T06:28:55;20.43;;;18.50;;
8397;SDS011;4236;54.504;9.588;2023-12-20T06:31:22;20.43;;;18.13;;
8397;SDS011;4236;54.504;9.588;2023-12-20T06:33:50;21.27;;;19.60;;
8397;SDS011;4236;54.504;9.588;2023-12-20T06:36:24;20.90;;;19.27;;
8397;SDS011;4236;54.504;9.588;2023-12-20T06:38:51;23.07;;;19.47;;
8397;SDS011;4236;54.504;9.588;2023-12-20T06:41:20;21.50;;;19.50;;
8397;SDS011;4236;54.504;9.588;2023-12-20T06:43:50;21.07;;;19.17;;
8397;SDS011;4236;54.504;9.588;2023-12-20T06:46:19;22.17;;;20.07;;
8397;SDS011;4236;54.504;9.588;2023-12-20T06:48:47;28.87;;;19.40;;
8397;SDS011;4236;54.504;9.588;2023-12-20T06:51:15;21.03;;;18.90;;
8397;SDS011;4236;54.504;9.588;2023-12-20T06:53:43;21.50;;;19.50;;
8397;SDS011;4236;54.504;9.588;2023-12-20T06:56:10;30.90;;;19.43;;
8397;SDS011;4236;54.504;9.588;2023-12-20T06:58:44;22.57;;;20.47;;
8397;SDS011;4236;54.504;9.588;2023-12-20T07:01:12;22.17;;;20.43;;
8397;SDS011;4236;54.504;9.588;2023-12-20T07:03:40;23.70;;;19.97;;
8397;SDS011;4236;54.504;9.588;2023-12-20T07:06:08;21.60;;;19.50;;
8397;SDS011;4236;54.504;9.588;2023-12-20T07:08:35;22.33;;;20.40;;
8397;SDS011;4236;54.504;9.588;2023-12-20T07:11:03;27.30;;;21.00;;
8397;SDS011;4236;54.504;9.588;2023-12-20T07:13:30;31.83;;;22.00;;
8397;SDS011;4236;54.504;9.588;2023-12-20T07:16:00;24.27;;;22.00;;
8397;SDS011;4236;54.504;9.588;2023-12-20T07:18:27;23.77;;;20.97;;
8397;SDS011;4236;54.504;9.588;2023-12-20T07:20:55;26.73;;;20.63;;
8397;SDS011;4236;54.504;9.588;2023-12-20T07:23:23;33.23;;;21.00;;
8397;SDS011;4236;54.504;9.588;2023-12-20T07:25:52;24.20;;;20.80;;
8397;SDS011;4236;54.504;9.588;2023-12-20T07:28:19;24.93;;;21.43;;
8397;SDS011;4236;54.504;9.588;2023-12-20T07:30:47;27.17;;;20.63;;
8397;SDS011;4236;54.504;9.588;2023-12-20T07:33:16;26.00;;;20.10;;
8397;SDS011;4236;54.504;9.588;2023-12-20T07:35:44;24.20;;;21.40;;
8397;SDS011;4236;54.504;9.588;2023-12-20T07:38:12;27.17;;;20.90;;
8397;SDS011;4236;54.504;9.588;2023-12-20T07:40:39;28.73;;;22.30;;
8397;SDS011;4236;54.504;9.588;2023-12-20T07:43:07;24.13;;;21.17;;
8397;SDS011;4236;54.504;9.588;2023-12-20T07:45:35;24.57;;;21.70;;
8397;SDS011;4236;54.504;9.588;2023-12-20T07:48:04;34.23;;;22.00;;
8397;SDS011;4236;54.504;9.588;2023-12-20T07:50:34;24.63;;;22.07;;
8397;SDS011;4236;54.504;9.588;2023-12-20T07:53:01;28.70;;;22.87;;
8397;SDS011;4236;54.504;9.588;2023-12-20T07:55:29;24.47;;;21.67;;
8397;SDS011;4236;54.504;9.588;2023-12-20T07:57:57;24.27;;;20.97;;
8397;SDS011;4236;54.504;9.588;2023-12-20T08:00:25;34.87;;;21.70;;
8397;SDS011;4236;54.504;9.588;2023-12-20T08:02:53;20.60;;;19.00;;
8397;SDS011;4236;54.504;9.588;2023-12-20T08:05:20;20.03;;;18.70;;
8397;SDS011;4236;54.504;9.588;2023-12-20T08:07:50;19.10;;;18.00;;
8397;SDS011;4236;54.504;9.588;2023-12-20T08:10:18;21.60;;;19.73;;
8397;SDS011;4236;54.504;9.588;2023-12-20T08:12:46;20.13;;;19.10;;
8397;SDS011;4236;54.504;9.588;2023-12-20T08:15:13;21.13;;;20.23;;
8397;SDS011;4236;54.504;9.588;2023-12-20T08:17:41;23.37;;;21.80;;
8397;SDS011;4236;54.504;9.588;2023-12-20T08:20:10;21.90;;;20.77;;
8397;SDS011;4236;54.504;9.588;2023-12-20T08:22:40;22.50;;;21.60;;
8397;SDS011;4236;54.504;9.588;2023-12-20T08:25:09;22.07;;;20.93;;
8397;SDS011;4236;54.504;9.588;2023-12-20T08:27:39;22.30;;;21.10;;
8397;SDS011;4236;54.504;9.588;2023-12-20T08:30:08;22.30;;;21.30;;
8397;SDS011;4236;54.504;9.588;2023-12-20T08:32:35;21.47;;;20.53;;
8397;SDS011;4236;54.504;9.588;2023-12-20T08:35:04;20.90;;;19.60;;
8397;SDS011;4236;54.504;9.588;2023-12-20T08:37:31;22.10;;;20.63;;
8397;SDS011;4236;54.504;9.588;2023-12-20T08:39:59;21.00;;;19.90;;
8397;SDS011;4236;54.504;9.588;2023-12-20T08:42:28;21.00;;;19.73;;
8397;SDS011;4236;54.504;9.588;2023-12-20T08:44:57;20.20;;;18.70;;
8397;SDS011;4236;54.504;9.588;2023-12-20T08:47:25;20.73;;;19.10;;
8397;SDS011;4236;54.504;9.588;2023-12-20T08:49:53;19.10;;;18.00;;
8397;SDS011;4236;54.504;9.588;2023-12-20T08:52:22;19.87;;;18.70;;
8397;SDS011;4236;54.504;9.588;2023-12-20T08:54:50;20.30;;;19.07;;
8397;SDS011;4236;54.504;9.588;2023-12-20T08:57:20;19.60;;;18.40;;
8397;SDS011;4236;54.504;9.588;2023-12-20T08:59:50;21.67;;;19.70;;
8397;SDS011;4236;54.504;9.588;2023-12-20T09:02:18;21.00;;;19.50;;
8397;SDS011;4236;54.504;9.588;2023-12-20T09:04:46;19.23;;;18.10;;
8397;SDS011;4236;54.504;9.588;2023-12-20T09:07:22;19.07;;;17.93;;
8397;SDS011;4236;54.504;9.588;2023-12-20T09:09:50;19.90;;;18.37;;
8397;SDS011;4236;54.504;9.588;2023-12-20T09:12:19;19.50;;;18.47;;
8397;SDS011;4236;54.504;9.588;2023-12-20T09:14:46;19.77;;;18.60;;
8397;SDS011;4236;54.504;9.588;2023-12-20T09:17:15;20.60;;;19.27;;
8397;SDS011;4236;54.504;9.588;2023-12-20T09:19:42;20.43;;;18.80;;
8397;SDS011;4236;54.504;9.588;2023-12-20T09:22:11;19.70;;;18.20;;
8397;SDS011;4236;54.504;9.588;2023-12-20T09:24:39;19.27;;;18.20;;
8397;SDS011;4236;54.504;9.588;2023-12-20T09:27:07;20.03;;;18.87;;
8397;SDS011;4236;54.504;9.588;2023-12-20T09:29:34;20.17;;;19.27;;
8397;SDS011;4236;54.504;9.588;2023-12-20T09:32:02;18.63;;;17.73;;
8397;SDS011;4236;54.504;9.588;2023-12-20T09:34:31;20.83;;;19.00;;
8397;SDS011;4236;54.504;9.588;2023-12-20T09:36:59;19.60;;;18.30;;
8397;SDS011;4236;54.504;9.588;2023-12-20T09:39:26;20.17;;;18.67;;
8397;SDS011;4236;54.504;9.588;2023-12-20T09:42:01;19.73;;;18.53;;
8397;SDS011;4236;54.504;9.588;2023-12-20T09:44:29;20.67;;;19.03;;
8397;SDS011;4236;54.504;9.588;2023-12-20T09:46:57;18.63;;;17.37;;
8397;SDS011;4236;54.504;9.588;2023-12-20T09:49:25;19.83;;;18.63;;
8397;SDS011;4236;54.504;9.588;2023-12-20T09:51:56;20.27;;;18.77;;
8397;SDS011;4236;54.504;9.588;2023-12-20T09:54:24;20.03;;;18.63;;
8397;SDS011;4236;54.504;9.588;2023-12-20T09:56:52;20.73;;;19.33;;
8397;SDS011;4236;54.504;9.588;2023-12-20T09:59:20;20.03;;;18.53;;
8397;SDS011;4236;54.504;9.588;2023-12-20T10:01:48;22.00;;;19.83;;
8397;SDS011;4236;54.504;9.588;2023-12-20T10:04:15;19.93;;;18.60;;
8397;SDS011;4236;54.504;9.588;2023-12-20T10:06:57;19.50;;;18.50;;
8397;SDS011;4236;54.504;9.588;2023-12-20T10:09:32;20.33;;;18.57;;
8397;SDS011;4236;54.504;9.588;2023-12-20T10:12:00;21.87;;;20.00;;
8397;SDS011;4236;54.504;9.588;2023-12-20T10:14:28;18.93;;;17.70;;
8397;SDS011;4236;54.504;9.588;2023-12-20T10:17:01;18.67;;;17.43;;
8397;SDS011;4236;54.504;9.588;2023-12-20T10:19:29;19.17;;;17.90;;
8397;SDS011;4236;54.504;9.588;2023-12-20T10:21:58;18.77;;;17.77;;
8397;SDS011;4236;54.504;9.588;2023-12-20T10:24:28;20.93;;;19.43;;
8397;SDS011;4236;54.504;9.588;2023-12-20T10:27:02;19.53;;;17.73;;
8397;SDS011;4236;54.504;9.588;2023-12-20T10:29:31;20.57;;;18.93;;
8397;SDS011;4236;54.504;9.588;2023-12-20T10:32:08;19.90;;;18.77;;
8397;SDS011;4236;54.504;9.588;2023-12-20T10:34:48;20.47;;;19.03;;
8397;SDS011;4236;54.504;9.588;2023-12-20T10:37:17;19.83;;;18.47;;
8397;SDS011;4236;54.504;9.588;2023-12-20T10:39:46;21.23;;;19.60;;
8397;SDS011;4236;54.504;9.588;2023-12-20T10:42:16;20.43;;;18.90;;
8397;SDS011;4236;54.504;9.588;2023-12-20T10:44:43;23.27;;;19.43;;
8397;SDS011;4236;54.504;9.588;2023-12-20T10:47:11;20.60;;;18.87;;
8397;SDS011;4236;54.504;9.588;2023-12-20T10:49:39;20.80;;;19.30;;
8397;SDS011;4236;54.504;9.588;2023-12-20T10:52:07;21.07;;;19.33;;
8397;SDS011;4236;54.504;9.588;2023-12-20T10:54:37;21.47;;;19.70;;
8397;SDS011;4236;54.504;9.588;2023-12-20T10:57:05;21.10;;;19.17;;
8397;SDS011;4236;54.504;9.588;2023-12-20T10:59:33;20.27;;;18.63;;
8397;SDS011;4236;54.504;9.588;2023-12-20T11:02:03;22.47;;;20.30;;
8397;SDS011;4236;54.504;9.588;2023-12-20T11:04:35;23.80;;;21.40;;
8397;SDS011;4236;54.504;9.588;2023-12-20T11:07:06;22.27;;;20.73;;
8397;SDS011;4236;54.504;9.588;2023-12-20T11:09:37;20.20;;;18.77;;
8397;SDS011;4236;54.504;9.588;2023-12-20T11:12:09;22.80;;;21.03;;
8397;SDS011;4236;54.504;9.588;2023-12-20T11:14:39;22.10;;;20.40;;
8397;SDS011;4236;54.504;9.588;2023-12-20T11:17:08;22.17;;;20.63;;
8397;SDS011;4236;54.504;9.588;2023-12-20T11:19:36;22.23;;;20.30;;
8397;SDS011;4236;54.504;9.588;2023-12-20T11:22:04;22.93;;;20.17;;
8397;SDS011;4236;54.504;9.588;2023-12-20T11:24:32;21.23;;;19.57;;
8397;SDS011;4236;54.504;9.588;2023-12-20T11:27:00;21.97;;;19.73;;
8397;SDS011;4236;54.504;9.588;2023-12-20T11:29:33;23.00;;;20.80;;
8397;SDS011;4236;54.504;9.588;2023-12-20T11:32:01;21.87;;;19.77;;
8397;SDS011;4236;54.504;9.588;2023-12-20T11:34:31;21.13;;;19.40;;
8397;SDS011;4236;54.504;9.588;2023-12-20T11:36:59;21.33;;;18.57;;
8397;SDS011;4236;54.504;9.588;2023-12-20T11:39:27;21.73;;;19.97;;
8397;SDS011;4236;54.504;9.588;2023-12-20T11:41:56;22.27;;;19.60;;
8397;SDS011;4236;54.504;9.588;2023-12-20T11:44:25;24.50;;;20.53;;
8397;SDS011;4236;54.504;9.588;2023-12-20T11:46:54;20.07;;;18.67;;
8397;SDS011;4236;54.504;9.588;2023-12-20T11:49:24;19.97;;;18.33;;
8397;SDS011;4236;54.504;9.588;2023-12-20T11:51:52;28.27;;;26.23;;
8397;SDS011;4236;54.504;9.588;2023-12-20T11:54:20;43.83;;;40.73;;
8397;SDS011;4236;54.504;9.588;2023-12-20T11:56:48;162.13;;;154.03;;
8397;SDS011;4236;54.504;9.588;2023-12-20T11:59:15;217.20;;;206.33;;
8397;SDS011;4236;54.504;9.588;2023-12-20T12:01:49;314.23;;;299.33;;
8397;SDS011;4236;54.504;9.588;2023-12-20T12:04:19;284.17;;;269.90;;
8397;SDS011;4236;54.504;9.588;2023-12-20T12:06:47;232.77;;;220.90;;
8397;SDS011;4236;54.504;9.588;2023-12-20T12:09:15;161.53;;;152.00;;
8397;SDS011;4236;54.504;9.588;2023-12-20T12:11:42;121.93;;;115.83;;
8397;SDS011;4236;54.504;9.588;2023-12-20T12:14:10;81.67;;;76.50;;
8397;SDS011;4236;54.504;9.588;2023-12-20T12:16:38;50.03;;;46.83;;
8397;SDS011;4236;54.504;9.588;2023-12-20T12:19:05;28.70;;;25.73;;
8397;SDS011;4236;54.504;9.588;2023-12-20T12:21:34;27.97;;;25.07;;
8397;SDS011;4236;54.504;9.588;2023-12-20T12:24:08;28.90;;;26.20;;
8397;SDS011;4236;54.504;9.588;2023-12-20T12:26:36;28.33;;;25.53;;
8397;SDS011;4236;54.504;9.588;2023-12-20T12:29:03;27.53;;;24.73;;
8397;SDS011;4236;54.504;9.588;2023-12-20T12:31:34;27.00;;;24.40;;
8397;SDS011;4236;54.504;9.588;2023-12-20T12:34:02;27.00;;;24.20;;
8397;SDS011;4236;54.504;9.588;2023-12-20T12:36:29;27.23;;;24.87;;
8397;SDS011;4236;54.504;9.588;2023-12-20T12:38:58;23.87;;;21.67;;
8397;SDS011;4236;54.504;9.588;2023-12-20T12:41:30;25.23;;;22.57;;
8397;SDS011;4236;54.504;9.588;2023-12-20T12:43:58;22.70;;;21.20;;
8397;SDS011;4236;54.504;9.588;2023-12-20T12:46:39;31.03;;;25.00;;
8397;SDS011;4236;54.504;9.588;2023-12-20T12:49:07;40.00;;;24.70;;
8397;SDS011;4236;54.504;9.588;2023-12-20T12:51:35;33.07;;;27.17;;
8397;SDS011;4236;54.504;9.588;2023-12-20T12:54:04;23.13;;;20.73;;
8397;SDS011;4236;54.504;9.588;2023-12-20T12:56:32;24.87;;;20.33;;
8397;SDS011;4236;54.504;9.588;2023-12-20T12:59:00;21.67;;;19.57;;
8397;SDS011;4236;54.504;9.588;2023-12-20T13:01:28;23.77;;;20.43;;
8397;SDS011;4236;54.504;9.588;2023-12-20T13:03:56;22.57;;;20.27;;
8397;SDS011;4236;54.504;9.588;2023-12-20T13:06:23;22.97;;;20.57;;
8397;SDS011;4236;54.504;9.588;2023-12-20T13:08:51;22.37;;;19.93;;
8397;SDS011;4236;54.504;9.588;2023-12-20T13:11:20;22.60;;;20.30;;
8397;SDS011;4236;54.504;9.588;2023-12-20T13:13:48;24.27;;;20.80;;
8397;SDS011;4236;54.504;9.588;2023-12-20T13:16:15;21.93;;;19.83;;
8397;SDS011;4236;54.504;9.588;2023-12-20T13:18:43;21.83;;;19.80;;
8397;SDS011;4236;54.504;9.588;2023-12-20T13:21:11;26.47;;;20.70;;
8397;SDS011;4236;54.504;9.588;2023-12-20T13:23:39;22.83;;;20.83;;
8397;SDS011;4236;54.504;9.588;2023-12-20T13:26:06;24.03;;;20.20;;
8397;SDS011;4236;54.504;9.588;2023-12-20T13:28:35;21.37;;;19.63;;
8397;SDS011;4236;54.504;9.588;2023-12-20T13:31:03;22.67;;;20.53;;
8397;SDS011;4236;54.504;9.588;2023-12-20T13:33:31;20.80;;;19.23;;
8397;SDS011;4236;54.504;9.588;2023-12-20T13:35:58;19.73;;;18.53;;
8397;SDS011;4236;54.504;9.588;2023-12-20T13:38:29;21.27;;;19.60;;
8397;SDS011;4236;54.504;9.588;2023-12-20T13:40:56;21.60;;;19.70;;
8397;SDS011;4236;54.504;9.588;2023-12-20T13:43:25;20.60;;;18.90;;
8397;SDS011;4236;54.504;9.588;2023-12-20T13:45:54;20.37;;;18.50;;
8397;SDS011;4236;54.504;9.588;2023-12-20T13:48:22;19.40;;;17.80;;
8397;SDS011;4236;54.504;9.588;2023-12-20T13:50:50;21.13;;;19.40;;
8397;SDS011;4236;54.504;9.588;2023-12-20T13:53:17;21.23;;;19.43;;
8397;SDS011;4236;54.504;9.588;2023-12-20T13:55:46;19.97;;;18.20;;
8397;SDS011;4236;54.504;9.588;2023-12-20T13:58:13;21.17;;;19.20;;
8397;SDS011;4236;54.504;9.588;2023-12-20T14:00:41;20.63;;;18.80;;
8397;SDS011;4236;54.504;9.588;2023-12-20T14:03:10;22.03;;;19.97;;
8397;SDS011;4236;54.504;9.588;2023-12-20T14:05:38;20.87;;;18.97;;
8397;SDS011;4236;54.504;9.588;2023-12-20T14:08:06;25.00;;;18.60;;
8397;SDS011;4236;54.504;9.588;2023-12-20T14:10:34;20.20;;;18.47;;
8397;SDS011;4236;54.504;9.588;2023-12-20T14:13:02;20.90;;;18.90;;
8397;SDS011;4236;54.504;9.588;2023-12-20T14:15:29;20.43;;;18.63;;
8397;SDS011;4236;54.504;9.588;2023-12-20T14:18:03;21.03;;;18.67;;
8397;SDS011;4236;54.504;9.588;2023-12-20T14:20:33;22.07;;;20.00;;
8397;SDS011;4236;54.504;9.588;2023-12-20T14:23:01;22.80;;;19.57;;
8397;SDS011;4236;54.504;9.588;2023-12-20T14:25:29;22.03;;;19.80;;
8397;SDS011;4236;54.504;9.588;2023-12-20T14:28:10;22.83;;;18.40;;
8397;SDS011;4236;54.504;9.588;2023-12-20T14:30:40;20.87;;;18.97;;
8397;SDS011;4236;54.504;9.588;2023-12-20T14:33:08;22.93;;;18.73;;
8397;SDS011;4236;54.504;9.588;2023-12-20T14:35:37;22.33;;;19.47;;
8397;SDS011;4236;54.504;9.588;2023-12-20T14:38:05;26.90;;;20.43;;
8397;SDS011;4236;54.504;9.588;2023-12-20T14:40:32;20.97;;;18.90;;
8397;SDS011;4236;54.504;9.588;2023-12-20T14:43:00;21.23;;;18.70;;
8397;SDS011;4236;54.504;9.588;2023-12-20T14:45:30;23.57;;;19.30;;
8397;SDS011;4236;54.504;9.588;2023-12-20T14:47:58;31.33;;;19.53;;
8397;SDS011;4236;54.504;9.588;2023-12-20T14:50:26;25.83;;;20.50;;
8397;SDS011;4236;54.504;9.588;2023-12-20T14:52:55;23.27;;;20.80;;
8397;SDS011;4236;54.504;9.588;2023-12-20T14:55:22;35.67;;;21.07;;